sensor_id;sensor_type;location;lat;lon;timestamp;P1;P2;P0
47709;PMS7003;33473;51.640;5.892;2023-11-19T00:00:44;5.05;7.75;5.68
47709;PMS7003;33473;51.640;5.892;2023-11-19T00:14:06;5.29;7.86;6.11
47709;PMS7003;33473;51.640;5.892;2023-11-19T00:27:27;5.41;7.64;6.11
47709;PMS7003;33473;51.640;5.892;2023-11-19T00:40:48;5.05;7.64;6.11
47709;PMS7003;33473;51.640;5.892;2023-11-19T00:54:08;4.93;7.31;5.35
47709;PMS7003;33473;51.640;5.892;2023-11-19T01:07:29;5.53;7.2;5.79
47709;PMS7003;33473;51.640;5.892;2023-11-19T01:20:49;3.97;6.11;4.8
47709;PMS7003;33473;51.640;5.892;2023-11-19T01:34:09;2.76;5.13;3.71
47709;PMS7003;33473;51.640;5.892;2023-11-19T01:47:30;3.6;4.59;3.06
47709;PMS7003;33473;51.640;5.892;2023-11-19T02:00:51;2.16;4.15;3.06
47709;PMS7003;33473;51.640;5.892;2023-11-19T02:14:12;3.12;4.8;2.95
47709;PMS7003;33473;51.640;5.892;2023-11-19T02:27:34;2.04;4.15;2.62
47709;PMS7003;33473;51.640;5.892;2023-11-19T02:40:55;4.33;4.37;2.62
47709;PMS7003;33473;51.640;5.892;2023-11-19T02:54:15;2.4;4.8;3.06
47709;PMS7003;33473;51.640;5.892;2023-11-19T03:07:35;3.12;5.57;3.61
47709;PMS7003;33473;51.640;5.892;2023-11-19T03:20:54;3.6;5.24;2.84
47709;PMS7003;33473;51.640;5.892;2023-11-19T03:34:15;5.29;4.59;2.62
47709;PMS7003;33473;51.640;5.892;2023-11-19T03:47:37;3.12;4.15;2.3
47709;PMS7003;33473;51.640;5.892;2023-11-19T04:00:57;3.6;4.59;2.41
47709;PMS7003;33473;51.640;5.892;2023-11-19T04:14:16;7.33;4.04;1.97
47709;PMS7003;33473;51.640;5.892;2023-11-19T04:27:36;5.65;4.37;1.97
47709;PMS7003;33473;51.640;5.892;2023-11-19T04:40:56;6.13;4.59;1.97
47709;PMS7003;33473;51.640;5.892;2023-11-19T04:54:16;4.81;4.8;1.97
47709;PMS7003;33473;51.640;5.892;2023-11-19T05:07:37;8.29;5.35;2.41
47709;PMS7003;33473;51.640;5.892;2023-11-19T05:20:58;7.81;5.13;2.62
47709;PMS7003;33473;51.640;5.892;2023-11-19T05:34:18;6.61;5.9;2.62
47709;PMS7003;33473;51.640;5.892;2023-11-19T05:47:37;6.49;6.0;2.52
47709;PMS7003;33473;51.640;5.892;2023-11-19T06:00:59;4.33;4.7;2.19
47709;PMS7003;33473;51.640;5.892;2023-11-19T06:14:20;5.89;4.48;2.08
47709;PMS7003;33473;51.640;5.892;2023-11-19T06:27:41;7.93;4.8;1.97
47709;PMS7003;33473;51.640;5.892;2023-11-19T06:41:02;5.89;4.91;2.19
47709;PMS7003;33473;51.640;5.892;2023-11-19T06:54:22;8.41;4.59;2.19
47709;PMS7003;33473;51.640;5.892;2023-11-19T07:07:42;12.13;4.59;1.86
47709;PMS7003;33473;51.640;5.892;2023-11-19T07:21:03;5.53;4.7;1.75
47709;PMS7003;33473;51.640;5.892;2023-11-19T07:34:23;11.89;5.35;2.08
47709;PMS7003;33473;51.640;5.892;2023-11-19T07:47:44;3.97;4.7;1.64
47709;PMS7003;33473;51.640;5.892;2023-11-19T08:01:04;8.41;5.68;1.97
47709;PMS7003;33473;51.640;5.892;2023-11-19T08:14:23;9.61;4.8;1.75
47709;PMS7003;33473;51.640;5.892;2023-11-19T08:27:43;9.61;4.37;1.86
47709;PMS7003;33473;51.640;5.892;2023-11-19T08:41:03;10.21;4.48;1.75
47709;PMS7003;33473;51.640;5.892;2023-11-19T08:54:24;14.17;3.93;1.75
47709;PMS7003;33473;51.640;5.892;2023-11-19T09:07:44;5.65;5.24;1.86
47709;PMS7003;33473;51.640;5.892;2023-11-19T09:21:03;7.33;5.24;1.75
47709;PMS7003;33473;51.640;5.892;2023-11-19T09:34:25;6.85;5.02;1.97
47709;PMS7003;33473;51.640;5.892;2023-11-19T09:47:46;4.69;4.37;1.64
47709;PMS7003;33473;51.640;5.892;2023-11-19T10:01:06;8.05;5.13;1.97
47709;PMS7003;33473;51.640;5.892;2023-11-19T10:14:27;6.73;5.57;2.19
47709;PMS7003;33473;51.640;5.892;2023-11-19T10:27:46;7.09;5.13;2.19
47709;PMS7003;33473;51.640;5.892;2023-11-19T10:41:06;9.97;6.0;2.41
47709;PMS7003;33473;51.640;5.892;2023-11-19T10:54:27;5.41;4.91;2.3
47709;PMS7003;33473;51.640;5.892;2023-11-19T11:07:49;4.69;4.91;2.08
47709;PMS7003;33473;51.640;5.892;2023-11-19T11:21:10;4.81;4.8;2.08
47709;PMS7003;33473;51.640;5.892;2023-11-19T11:34:29;4.69;4.48;2.08
47709;PMS7003;33473;51.640;5.892;2023-11-19T11:47:49;4.09;4.48;1.75
47709;PMS7003;33473;51.640;5.892;2023-11-19T12:01:09;10.93;4.15;1.75
47709;PMS7003;33473;51.640;5.892;2023-11-19T12:14:29;1.68;2.95;1.75
47709;PMS7003;33473;51.640;5.892;2023-11-19T12:27:50;7.33;3.39;1.86
47709;PMS7003;33473;51.640;5.892;2023-11-19T12:41:11;2.64;4.04;1.75
47709;PMS7003;33473;51.640;5.892;2023-11-19T12:54:31;2.76;3.71;1.86
47709;PMS7003;33473;51.640;5.892;2023-11-19T13:07:52;7.69;4.26;1.86
47709;PMS7003;33473;51.640;5.892;2023-11-19T13:21:12;4.33;3.93;1.75
47709;PMS7003;33473;51.640;5.892;2023-11-19T13:34:31;3.97;4.48;1.86
47709;PMS7003;33473;51.640;5.892;2023-11-19T13:47:53;3.0;4.15;1.64
47709;PMS7003;33473;51.640;5.892;2023-11-19T14:01:14;3.85;3.28;1.64
47709;PMS7003;33473;51.640;5.892;2023-11-19T14:14:35;2.16;3.39;1.97
47709;PMS7003;33473;51.640;5.892;2023-11-19T14:27:56;4.69;4.15;1.64
47709;PMS7003;33473;51.640;5.892;2023-11-19T14:41:17;3.12;4.26;1.75
47709;PMS7003;33473;51.640;5.892;2023-11-19T14:54:37;7.93;4.26;1.75
47709;PMS7003;33473;51.640;5.892;2023-11-19T15:07:57;1.32;3.17;1.75
47709;PMS7003;33473;51.640;5.892;2023-11-19T15:21:18;3.6;3.71;1.75
47709;PMS7003;33473;51.640;5.892;2023-11-19T15:34:38;2.16;3.61;1.86
47709;PMS7003;33473;51.640;5.892;2023-11-19T15:47:59;4.21;3.71;1.86
47709;PMS7003;33473;51.640;5.892;2023-11-19T16:01:20;2.76;3.82;1.97
47709;PMS7003;33473;51.640;5.892;2023-11-19T16:14:40;6.85;3.93;1.97
47709;PMS7003;33473;51.640;5.892;2023-11-19T16:28:01;2.88;3.5;1.86
47709;PMS7003;33473;51.640;5.892;2023-11-19T16:41:22;1.56;4.15;1.97
47709;PMS7003;33473;51.640;5.892;2023-11-19T16:54:42;1.32;3.82;1.75
47709;PMS7003;33473;51.640;5.892;2023-11-19T17:08:03;3.73;4.37;2.08
47709;PMS7003;33473;51.640;5.892;2023-11-19T17:21:25;6.49;4.15;1.97
47709;PMS7003;33473;51.640;5.892;2023-11-19T17:34:45;3.12;4.26;1.97
47709;PMS7003;33473;51.640;5.892;2023-11-19T17:48:06;2.28;3.93;2.19
47709;PMS7003;33473;51.640;5.892;2023-11-19T18:01:27;9.97;4.15;2.41
47709;PMS7003;33473;51.640;5.892;2023-11-19T18:14:48;3.24;4.04;2.41
47709;PMS7003;33473;51.640;5.892;2023-11-19T18:28:10;2.52;4.91;2.84
47709;PMS7003;33473;51.640;5.892;2023-11-19T18:41:29;1.2;3.06;1.97
47709;PMS7003;33473;51.640;5.892;2023-11-19T18:54:49;0.24;2.84;1.86
47709;PMS7003;33473;51.640;5.892;2023-11-19T19:08:09;0.72;3.06;1.75
47709;PMS7003;33473;51.640;5.892;2023-11-19T19:21:29;1.2;3.17;1.75
47709;PMS7003;33473;51.640;5.892;2023-11-19T19:34:50;0.6;2.84;1.75
47709;PMS7003;33473;51.640;5.892;2023-11-19T19:48:10;0.72;3.5;2.3
47709;PMS7003;33473;51.640;5.892;2023-11-19T20:01:31;2.76;3.71;2.62
47709;PMS7003;33473;51.640;5.892;2023-11-19T20:14:51;3.97;4.26;2.73
47709;PMS7003;33473;51.640;5.892;2023-11-19T20:28:10;3.0;4.8;2.73
47709;PMS7003;33473;51.640;5.892;2023-11-19T20:41:32;3.6;4.91;2.95
47709;PMS7003;33473;51.640;5.892;2023-11-19T20:54:52;2.76;4.48;2.95
47709;PMS7003;33473;51.640;5.892;2023-11-19T21:08:11;2.04;4.04;2.41
47709;PMS7003;33473;51.640;5.892;2023-11-19T21:21:31;3.36;4.37;2.52
47709;PMS7003;33473;51.640;5.892;2023-11-19T21:34:51;4.21;4.48;2.62
47709;PMS7003;33473;51.640;5.892;2023-11-19T21:48:12;5.77;3.93;2.62
47709;PMS7003;33473;51.640;5.892;2023-11-19T22:01:32;2.16;4.37;2.73
47709;PMS7003;33473;51.640;5.892;2023-11-19T22:14:53;1.32;3.93;2.73
47709;PMS7003;33473;51.640;5.892;2023-11-19T22:28:13;2.52;4.37;2.84
47709;PMS7003;33473;51.640;5.892;2023-11-19T22:41:34;2.4;4.26;2.84
47709;PMS7003;33473;51.640;5.892;2023-11-19T22:54:55;2.04;4.59;2.95
47709;PMS7003;33473;51.640;5.892;2023-11-19T23:08:15;4.93;4.59;3.17
47709;PMS7003;33473;51.640;5.892;2023-11-19T23:34:54;3.12;5.02;3.06
47709;PMS7003;33473;51.640;5.892;2023-11-19T23:48:16;5.41;5.24;3.39
